Time;durP1;ratioP1;P1;durP2;ratioP2;P2;SDS_P1;SDS_P2;PMS_P1;PMS_P2;Temp;Humidity;BMP_temperature;BMP_pressure;BME280_temperature;BME280_humidity;BME280_pressure;Samples;Min_cycle;Max_cycle;Signal;HPM_P1;HPM_P2
2023/08/19 00:00:55;;;;;;;13.55;11.52;;;18.60;99.90;;;;;;5018933;28;20108;-79
2023/08/19 00:03:21;;;;;;;12.18;10.70;;;18.60;99.90;;;;;;5032867;28;20152;-82
2023/08/19 00:05:47;;;;;;;14.40;10.50;;;18.60;99.90;;;;;;5012174;28;20034;-81
2023/08/19 00:08:13;;;;;;;12.70;11.48;;;18.50;99.90;;;;;;5014781;28;20030;-81
2023/08/19 00:10:41;;;;;;;12.60;10.35;;;18.50;99.90;;;;;;5014429;28;20029;-82
2023/08/19 00:13:07;;;;;;;12.05;10.77;;;18.50;99.90;;;;;;5025811;28;20038;-83
2023/08/19 00:15:34;;;;;;;13.23;10.80;;;18.50;99.90;;;;;;5020876;28;20045;-81
2023/08/19 00:18:01;;;;;;;12.88;9.90;;;18.40;99.90;;;;;;5025993;28;20030;-83
2023/08/19 00:20:29;;;;;;;15.90;11.45;;;18.40;99.90;;;;;;5024191;28;20054;-79
2023/08/19 00:22:56;;;;;;;14.20;10.15;;;18.40;99.90;;;;;;5031060;28;20030;-81
2023/08/19 00:25:24;;;;;;;14.82;10.20;;;18.40;99.90;;;;;;5025941;28;20034;-82
2023/08/19 00:27:51;;;;;;;11.38;9.98;;;18.30;99.90;;;;;;5020163;28;20220;-80
2023/08/19 00:30:17;;;;;;;11.95;10.50;;;18.30;99.90;;;;;;5040015;28;20049;-80
2023/08/19 00:32:44;;;;;;;11.82;10.73;;;18.30;99.90;;;;;;5029005;28;20038;-80
2023/08/19 00:35:10;;;;;;;12.57;10.15;;;18.30;99.90;;;;;;5019487;28;20101;-83
2023/08/19 00:37:36;;;;;;;12.68;11.48;;;18.20;99.90;;;;;;5023782;28;20030;-80
2023/08/19 00:40:05;;;;;;;12.27;11.07;;;18.20;99.90;;;;;;5037432;28;20041;-81
2023/08/19 00:42:32;;;;;;;15.57;13.63;;;18.30;99.90;;;;;;5028673;28;20499;-81
2023/08/19 00:44:58;;;;;;;12.35;11.00;;;18.20;99.90;;;;;;5020913;28;20034;-82
2023/08/19 00:47:25;;;;;;;13.48;11.00;;;18.20;99.90;;;;;;5025480;28;20053;-80
2023/08/19 00:49:51;;;;;;;12.05;10.75;;;18.20;99.90;;;;;;5034799;28;20041;-82
2023/08/19 00:52:18;;;;;;;12.23;9.30;;;18.20;99.90;;;;;;5042462;28;20073;-83
2023/08/19 00:54:45;;;;;;;14.38;8.75;;;18.20;99.90;;;;;;5033228;28;20042;-82
2023/08/19 00:57:12;;;;;;;11.10;9.27;;;18.20;99.90;;;;;;5013469;28;20030;-79
2023/08/19 00:59:38;;;;;;;11.55;9.02;;;18.20;99.90;;;;;;5024090;28;20038;-81
2023/08/19 01:02:04;;;;;;;14.07;9.85;;;18.10;99.90;;;;;;5013749;28;20149;-82
2023/08/19 01:04:30;;;;;;;10.07;9.07;;;18.10;99.90;;;;;;5012273;28;20037;-81
2023/08/19 01:07:20;;;;;;;11.77;10.02;;;18.10;99.90;;;;;;5023687;28;20038;-82
2023/08/19 01:10:03;;;;;;;11.93;10.65;;;18.10;99.90;;;;;;5014759;28;20037;-82
2023/08/19 01:12:48;;;;;;;13.68;10.55;;;18.00;99.90;;;;;;5037765;28;20038;-82
2023/08/19 01:15:21;;;;;;;13.65;10.48;;;17.90;99.90;;;;;;5023872;28;20026;-82
2023/08/19 01:17:51;;;;;;;12.85;11.00;;;17.90;99.90;;;;;;5016488;28;20031;-82
2023/08/19 01:20:18;;;;;;;13.63;11.85;;;17.90;99.90;;;;;;5025603;28;20037;-81
2023/08/19 01:23:03;;;;;;;12.77;10.75;;;17.90;99.90;;;;;;5021531;28;20033;-81
2023/08/19 01:25:29;;;;;;;12.25;11.05;;;17.90;99.90;;;;;;5015104;28;20034;-81
2023/08/19 01:27:55;;;;;;;15.07;11.50;;;17.90;99.90;;;;;;5018754;28;20049;-80
2023/08/19 01:30:22;;;;;;;13.50;10.48;;;17.90;99.90;;;;;;5017372;28;20117;-81
2023/08/19 01:32:47;;;;;;;12.18;10.85;;;17.90;99.90;;;;;;5016596;28;20122;-81
2023/08/19 01:35:17;;;;;;;12.98;11.18;;;17.80;99.90;;;;;;5021485;28;20295;-80
2023/08/19 01:37:57;;;;;;;11.13;10.02;;;17.80;99.90;;;;;;5015399;28;20379;-81
2023/08/19 01:40:24;;;;;;;12.57;11.15;;;17.80;99.90;;;;;;5014206;28;20057;-80
2023/08/19 01:42:50;;;;;;;12.57;11.27;;;17.80;99.90;;;;;;5012405;28;20152;-82
2023/08/19 01:45:18;;;;;;;12.70;11.50;;;17.70;99.90;;;;;;5019279;28;20418;-80
2023/08/19 01:47:43;;;;;;;12.43;11.25;;;17.70;99.90;;;;;;5020956;28;20051;-81
2023/08/19 01:50:09;;;;;;;13.40;11.85;;;17.70;99.90;;;;;;5014678;28;20504;-82
2023/08/19 01:52:36;;;;;;;13.23;11.75;;;17.70;99.90;;;;;;5027169;28;20029;-82
2023/08/19 01:55:02;;;;;;;12.05;10.73;;;17.70;99.90;;;;;;5017640;28;20045;-81
2023/08/19 01:57:28;;;;;;;14.30;11.35;;;17.70;99.90;;;;;;5009228;28;20023;-81
2023/08/19 01:59:55;;;;;;;17.00;10.05;;;17.70;99.90;;;;;;5022252;28;20091;-81
2023/08/19 02:02:24;;;;;;;12.10;10.70;;;17.70;99.90;;;;;;5041050;28;20040;-80
2023/08/19 02:04:50;;;;;;;13.18;11.85;;;17.70;99.90;;;;;;5031279;28;20042;-82
2023/08/19 02:07:16;;;;;;;13.38;11.77;;;17.70;99.90;;;;;;5016829;28;20486;-82
2023/08/19 02:09:43;;;;;;;12.57;11.30;;;17.70;99.90;;;;;;5011757;28;20125;-81
2023/08/19 02:12:09;;;;;;;12.38;11.10;;;17.70;99.90;;;;;;5020981;28;20045;-83
2023/08/19 02:14:35;;;;;;;12.18;10.65;;;17.70;99.90;;;;;;5018256;28;20637;-82
2023/08/19 02:17:01;;;;;;;13.55;11.00;;;17.70;99.90;;;;;;5036132;28;20606;-81
2023/08/19 02:19:26;;;;;;;10.98;9.82;;;17.70;99.90;;;;;;5008020;28;20034;-80
2023/08/19 02:21:52;;;;;;;11.38;10.15;;;17.60;99.90;;;;;;5024818;28;20034;-81
2023/08/19 02:24:18;;;;;;;11.00;9.90;;;17.60;99.90;;;;;;5024923;28;20144;-81
2023/08/19 02:26:44;;;;;;;16.13;11.63;;;17.60;99.90;;;;;;5023266;28;20111;-81
2023/08/19 02:29:10;;;;;;;14.32;10.73;;;17.60;99.90;;;;;;5016098;28;20100;-82
2023/08/19 02:31:36;;;;;;;13.13;11.35;;;17.60;99.90;;;;;;5023536;28;20041;-81
2023/08/19 02:34:03;;;;;;;12.70;11.48;;;17.50;99.90;;;;;;5020423;28;20034;-81
2023/08/19 02:36:31;;;;;;;16.05;11.82;;;17.50;99.90;;;;;;5000451;28;20037;-81
2023/08/19 02:38:58;;;;;;;13.07;11.55;;;17.50;99.90;;;;;;5017483;28;20093;-81
2023/08/19 02:41:24;;;;;;;11.85;10.65;;;17.40;99.90;;;;;;5023230;28;20029;-79
2023/08/19 02:43:50;;;;;;;12.88;11.20;;;17.40;99.90;;;;;;5045545;28;20064;-82
2023/08/19 02:46:16;;;;;;;14.52;11.38;;;17.40;99.90;;;;;;5019632;28;20509;-82
2023/08/19 02:48:42;;;;;;;15.27;10.50;;;17.40;99.90;;;;;;5012264;28;20018;-82
2023/08/19 02:51:07;;;;;;;14.85;11.57;;;17.40;99.90;;;;;;5027113;28;20109;-80
2023/08/19 02:53:33;;;;;;;13.40;10.93;;;17.40;99.90;;;;;;5006793;28;20108;-82
2023/08/19 02:55:59;;;;;;;12.85;11.45;;;17.30;99.90;;;;;;5019336;28;20094;-80
2023/08/19 02:58:25;;;;;;;13.23;11.93;;;17.30;99.90;;;;;;5008740;28;20089;-80
2023/08/19 03:00:51;;;;;;;12.48;11.18;;;17.30;99.90;;;;;;5014161;28;20513;-79
2023/08/19 03:03:17;;;;;;;12.32;11.02;;;17.30;99.90;;;;;;5027287;28;20037;-82
2023/08/19 03:05:43;;;;;;;13.88;11.27;;;17.30;99.90;;;;;;5015347;28;20035;-81
2023/08/19 03:08:10;;;;;;;13.23;11.65;;;17.20;99.90;;;;;;5014950;28;20120;-80
2023/08/19 03:10:38;;;;;;;14.98;11.85;;;17.20;99.90;;;;;;5017218;28;20022;-80
2023/08/19 03:13:05;;;;;;;13.48;12.07;;;17.20;99.90;;;;;;5026059;28;20034;-81
2023/08/19 03:15:31;;;;;;;12.77;11.48;;;17.20;99.90;;;;;;5016009;28;20030;-79
2023/08/19 03:17:57;;;;;;;12.70;11.10;;;17.20;99.90;;;;;;5002212;28;20380;-81
2023/08/19 03:20:23;;;;;;;12.35;11.05;;;17.20;99.90;;;;;;5014221;28;20065;-81
2023/08/19 03:22:49;;;;;;;14.95;10.40;;;17.20;99.90;;;;;;5017663;28;20045;-79
2023/08/19 03:25:15;;;;;;;13.95;10.85;;;17.20;99.90;;;;;;5012050;28;20030;-80
2023/08/19 03:27:42;;;;;;;15.20;10.23;;;17.10;99.90;;;;;;5012569;28;20054;-80
2023/08/19 03:30:09;;;;;;;11.85;9.35;;;17.10;99.90;;;;;;5009018;28;20041;-79
2023/08/19 03:32:36;;;;;;;8.98;8.13;;;17.10;99.90;;;;;;5018461;28;20033;-80
2023/08/19 03:35:02;;;;;;;11.60;9.48;;;17.10;99.90;;;;;;5017543;28;20030;-79
2023/08/19 03:37:29;;;;;;;12.02;10.73;;;17.10;99.90;;;;;;5036402;28;20046;-81
2023/08/19 03:39:54;;;;;;;11.27;10.13;;;17.00;99.90;;;;;;5017402;28;20034;-79
2023/08/19 03:42:20;;;;;;;12.15;9.98;;;17.00;99.90;;;;;;5031208;28;20088;-79
2023/08/19 03:44:46;;;;;;;11.05;9.95;;;16.90;99.90;;;;;;5030903;28;20063;-80
2023/08/19 03:47:13;;;;;;;12.45;11.25;;;17.00;99.90;;;;;;5021702;28;20125;-80
2023/08/19 03:49:40;;;;;;;13.20;10.95;;;16.90;99.90;;;;;;5021642;28;20482;-82
2023/08/19 03:52:07;;;;;;;13.70;11.07;;;16.90;99.90;;;;;;5017883;28;20033;-83
2023/08/19 03:54:33;;;;;;;11.90;10.70;;;16.90;99.90;;;;;;5034015;28;20034;-81
2023/08/19 03:56:59;;;;;;;12.18;10.88;;;16.90;99.90;;;;;;5018925;28;20030;-80
2023/08/19 03:59:25;;;;;;;14.57;11.40;;;16.90;99.90;;;;;;5017527;28;20026;-80
2023/08/19 04:01:52;;;;;;;11.07;9.93;;;16.90;99.90;;;;;;5017627;28;20033;-82
2023/08/19 04:04:18;;;;;;;11.00;9.77;;;16.80;99.90;;;;;;5015521;28;20133;-81
2023/08/19 04:06:44;;;;;;;13.18;9.02;;;16.80;99.90;;;;;;5040145;28;20072;-81
2023/08/19 04:09:12;;;;;;;11.35;9.65;;;16.80;99.90;;;;;;5020845;28;20062;-82
2023/08/19 04:11:38;;;;;;;13.73;9.95;;;16.90;99.90;;;;;;5026675;28;20060;-82
2023/08/19 04:14:05;;;;;;;11.40;10.02;;;16.80;99.90;;;;;;5017738;28;20045;-82
2023/08/19 04:16:32;;;;;;;13.20;9.98;;;16.80;99.90;;;;;;5019550;28;20029;-83
2023/08/19 04:18:58;;;;;;;12.07;10.25;;;16.70;99.90;;;;;;5016534;28;20034;-81
2023/08/19 04:21:24;;;;;;;12.93;10.80;;;16.70;99.90;;;;;;5041281;28;20076;-81
2023/08/19 04:23:50;;;;;;;11.48;10.30;;;16.70;99.90;;;;;;5020455;28;20075;-82
2023/08/19 04:26:16;;;;;;;12.60;10.55;;;16.70;99.90;;;;;;5034610;28;20034;-81
2023/08/19 04:28:46;;;;;;;11.77;10.65;;;16.70;99.90;;;;;;5008314;28;20060;-81
2023/08/19 04:31:12;;;;;;;10.57;9.50;;;16.70;99.90;;;;;;5042438;28;20025;-81
2023/08/19 04:33:45;;;;;;;12.77;10.18;;;16.70;99.90;;;;;;5025470;28;20394;-80
2023/08/19 04:36:12;;;;;;;13.48;9.95;;;16.70;99.90;;;;;;5033670;28;20039;-81
2023/08/19 04:38:38;;;;;;;10.27;9.27;;;16.70;99.90;;;;;;5015158;28;20030;-82
2023/08/19 04:41:06;;;;;;;12.80;9.57;;;16.70;99.90;;;;;;5040138;28;20040;-81
2023/08/19 04:43:37;;;;;;;14.50;9.68;;;16.70;99.90;;;;;;5010607;28;20421;-81
2023/08/19 04:46:03;;;;;;;13.73;10.25;;;16.70;99.90;;;;;;5008850;28;20044;-83
2023/08/19 04:48:29;;;;;;;11.68;10.52;;;16.70;99.90;;;;;;4997338;28;20514;-83
2023/08/19 04:50:55;;;;;;;11.18;10.07;;;16.70;99.90;;;;;;5009872;28;20037;-81
2023/08/19 04:53:21;;;;;;;11.35;10.15;;;16.70;99.90;;;;;;5018764;28;20033;-83
2023/08/19 04:55:47;;;;;;;12.23;11.10;;;16.80;99.90;;;;;;5023414;28;20037;-82
2023/08/19 04:58:13;;;;;;;12.85;10.35;;;16.80;99.90;;;;;;4985013;28;20043;-80
2023/08/19 05:00:39;;;;;;;12.10;10.93;;;16.80;99.90;;;;;;5029585;28;20030;-78
2023/08/19 05:03:05;;;;;;;12.18;10.90;;;16.90;99.90;;;;;;4977363;28;20038;-78
2023/08/19 05:05:32;;;;;;;11.85;10.13;;;16.90;99.90;;;;;;5014426;28;20030;-81
2023/08/19 05:07:58;;;;;;;11.20;9.82;;;16.90;99.90;;;;;;5009229;28;20071;-81
2023/08/19 05:10:23;;;;;;;12.30;10.98;;;16.90;99.90;;;;;;5010940;28;20483;-80
2023/08/19 05:12:49;;;;;;;12.63;10.75;;;17.00;99.90;;;;;;5022849;28;20117;-79
2023/08/19 05:15:15;;;;;;;12.18;10.88;;;17.00;99.90;;;;;;4997704;28;20101;-79
2023/08/19 05:17:41;;;;;;;16.92;14.90;;;17.00;99.90;;;;;;5030177;28;20030;-80
2023/08/19 05:20:07;;;;;;;13.70;12.35;;;17.10;99.90;;;;;;5026350;28;20511;-81
2023/08/19 05:22:33;;;;;;;13.07;11.68;;;17.20;99.90;;;;;;5014108;28;20529;-81
2023/08/19 05:24:59;;;;;;;12.13;10.82;;;17.20;99.90;;;;;;5022562;28;20059;-80
2023/08/19 05:27:25;;;;;;;12.27;10.98;;;17.30;99.90;;;;;;5029551;28;20537;-80
2023/08/19 05:29:51;;;;;;;11.70;9.88;;;17.40;99.90;;;;;;5011162;28;20121;-81
2023/08/19 05:32:17;;;;;;;12.48;11.02;;;17.40;99.90;;;;;;5013616;28;20041;-80
2023/08/19 05:34:43;;;;;;;13.80;9.80;;;17.50;99.90;;;;;;5010217;28;20030;-80
2023/08/19 05:37:09;;;;;;;11.75;10.55;;;17.50;99.90;;;;;;5007579;28;20025;-81
2023/08/19 05:39:34;;;;;;;12.65;11.35;;;17.70;99.90;;;;;;5017273;28;20049;-81
2023/08/19 05:42:00;;;;;;;11.52;10.40;;;17.80;99.90;;;;;;5011099;28;20025;-79
2023/08/19 05:44:26;;;;;;;15.63;12.35;;;17.90;99.90;;;;;;5007749;28;20040;-80
2023/08/19 05:46:52;;;;;;;17.58;12.18;;;18.10;99.90;;;;;;5011252;28;20061;-80
2023/08/19 05:49:17;;;;;;;15.23;12.40;;;18.30;99.90;;;;;;5012121;28;20038;-80
2023/08/19 05:51:43;;;;;;;18.65;15.73;;;18.50;99.90;;;;;;5006255;28;20367;-80
2023/08/19 05:54:09;;;;;;;17.17;15.38;;;18.70;99.90;;;;;;5007519;28;20101;-79
2023/08/19 05:56:35;;;;;;;16.27;14.57;;;19.10;99.90;;;;;;5007743;28;20077;-80
2023/08/19 05:59:00;;;;;;;19.20;15.88;;;19.40;99.90;;;;;;5011892;28;20021;-80
2023/08/19 06:01:26;;;;;;;14.60;12.88;;;19.70;99.90;;;;;;5009044;28;20017;-81
2023/08/19 06:03:52;;;;;;;15.70;12.82;;;20.00;99.90;;;;;;5008554;28;20092;-81
2023/08/19 06:06:21;;;;;;;14.35;12.68;;;20.20;99.90;;;;;;5020789;28;20136;-81
2023/08/19 06:08:47;;;;;;;15.60;12.98;;;20.50;99.90;;;;;;5020021;28;20191;-81
2023/08/19 06:11:13;;;;;;;13.27;11.77;;;20.60;99.90;;;;;;5012633;28;20034;-80
2023/08/19 06:13:38;;;;;;;14.02;12.63;;;20.80;99.90;;;;;;5001143;28;20122;-79
2023/08/19 06:16:05;;;;;;;13.00;11.70;;;21.10;99.90;;;;;;5016998;28;20034;-81
2023/08/19 06:18:31;;;;;;;11.93;10.80;;;21.30;99.90;;;;;;5009027;28;20106;-80
2023/08/19 06:20:57;;;;;;;12.60;11.30;;;21.50;99.90;;;;;;5015187;28;20030;-78
2023/08/19 06:23:23;;;;;;;12.25;10.98;;;21.70;99.90;;;;;;5019841;28;20025;-79
2023/08/19 06:25:50;;;;;;;12.43;11.23;;;21.80;99.90;;;;;;5022377;28;20029;-80
2023/08/19 06:28:16;;;;;;;13.40;11.50;;;21.90;99.90;;;;;;5011972;28;20088;-81
2023/08/19 06:30:43;;;;;;;11.88;10.77;;;22.00;99.90;;;;;;5008943;28;20026;-79
2023/08/19 06:33:09;;;;;;;12.05;10.48;;;22.20;99.90;;;;;;5014648;28;20052;-80
2023/08/19 06:35:36;;;;;;;12.18;10.90;;;22.30;99.90;;;;;;5022022;28;20029;-81
2023/08/19 06:38:18;;;;;;;13.00;10.65;;;22.60;99.90;;;;;;5016254;28;20034;-79
2023/08/19 06:41:09;;;;;;;11.68;10.48;;;22.80;99.90;;;;;;5025876;28;20034;-80
2023/08/19 06:43:37;;;;;;;11.07;10.07;;;22.90;99.90;;;;;;5025567;28;20621;-80
2023/08/19 06:46:05;;;;;;;11.50;10.40;;;23.00;99.90;;;;;;5025911;28;20045;-81
2023/08/19 06:48:32;;;;;;;13.05;11.07;;;22.90;99.90;;;;;;5007908;28;20049;-80
2023/08/19 06:50:59;;;;;;;11.60;10.50;;;22.90;99.90;;;;;;5017252;28;20053;-81
2023/08/19 06:53:25;;;;;;;12.32;10.38;;;23.00;99.90;;;;;;5026141;28;20347;-80
2023/08/19 06:56:10;;;;;;;11.38;10.20;;;23.20;99.90;;;;;;5016856;28;20224;-81
2023/08/19 06:58:40;;;;;;;11.63;10.53;;;23.40;99.90;;;;;;5021605;28;20116;-81
2023/08/19 07:01:12;;;;;;;11.80;10.07;;;23.50;99.90;;;;;;5016735;28;20277;-80
2023/08/19 07:03:39;;;;;;;14.45;10.35;;;23.60;99.90;;;;;;5013816;28;20030;-79
2023/08/19 07:06:07;;;;;;;11.70;10.45;;;23.80;99.90;;;;;;5040155;28;20034;-80
2023/08/19 07:08:36;;;;;;;11.77;10.10;;;23.90;99.90;;;;;;5026188;28;20112;-82
2023/08/19 07:11:02;;;;;;;10.68;9.30;;;24.20;99.90;;;;;;5018882;28;20065;-78
2023/08/19 07:13:28;;;;;;;10.95;9.90;;;24.20;99.90;;;;;;5014636;28;20096;-80
2023/08/19 07:16:02;;;;;;;10.43;9.40;;;24.30;99.90;;;;;;5013625;28;20030;-80
2023/08/19 07:18:37;;;;;;;10.20;9.20;;;24.40;99.90;;;;;;5018740;28;20120;-82
2023/08/19 07:21:04;;;;;;;12.48;10.18;;;24.60;99.90;;;;;;5042289;28;20069;-81
2023/08/19 07:23:37;;;;;;;9.77;8.88;;;24.50;99.90;;;;;;5008661;28;20061;-79
2023/08/19 07:26:03;;;;;;;9.65;8.68;;;24.70;99.90;;;;;;5008625;28;20609;-79
2023/08/19 07:28:31;;;;;;;10.77;9.77;;;24.90;99.90;;;;;;5007918;28;20038;-80
2023/08/19 07:31:15;;;;;;;9.70;8.80;;;24.80;99.90;;;;;;5037035;28;20095;-80
2023/08/19 07:33:44;;;;;;;9.40;8.52;;;24.80;99.90;;;;;;5029342;28;20061;-82
2023/08/19 07:36:10;;;;;;;11.63;9.70;;;24.90;99.90;;;;;;5005693;28;20033;-81
2023/08/19 07:38:36;;;;;;;9.50;8.60;;;24.80;99.90;;;;;;5010743;28;20038;-82
2023/08/19 07:41:02;;;;;;;8.43;7.65;;;25.00;99.90;;;;;;5012807;28;20409;-79
2023/08/19 07:43:28;;;;;;;8.93;8.10;;;25.10;99.90;;;;;;5021700;28;20028;-81
2023/08/19 07:45:53;;;;;;;9.88;8.93;;;25.10;99.90;;;;;;5025209;28;20410;-79
2023/08/19 07:48:19;;;;;;;9.90;9.00;;;25.20;99.90;;;;;;5028733;28;20033;-81
2023/08/19 07:50:45;;;;;;;9.23;8.20;;;25.30;99.90;;;;;;5023680;28;20038;-76
2023/08/19 07:53:12;;;;;;;10.23;8.50;;;25.40;99.90;;;;;;5021783;28;20044;-80
2023/08/19 07:55:38;;;;;;;11.30;8.38;;;25.40;99.90;;;;;;5011810;28;20034;-80
2023/08/19 07:58:04;;;;;;;8.98;8.18;;;25.40;99.90;;;;;;5019866;28;20102;-82
2023/08/19 08:00:31;;;;;;;8.80;8.00;;;25.50;99.90;;;;;;5008134;28;20034;-81
2023/08/19 08:02:56;;;;;;;9.82;8.15;;;25.60;99.90;;;;;;5016777;28;20085;-80
2023/08/19 08:05:22;;;;;;;10.68;8.73;;;25.50;99.90;;;;;;5007496;28;20053;-81
2023/08/19 08:07:48;;;;;;;9.50;8.60;;;25.60;99.90;;;;;;5017105;28;20036;-79
2023/08/19 08:10:13;;;;;;;9.65;8.75;;;25.60;99.90;;;;;;5018346;28;20405;-77
2023/08/19 08:12:39;;;;;;;8.70;7.90;;;25.60;99.90;;;;;;5014935;28;20052;-81
2023/08/19 08:15:05;;;;;;;10.98;8.85;;;25.70;99.90;;;;;;5013665;28;20038;-80
2023/08/19 08:17:31;;;;;;;9.45;8.27;;;25.70;99.90;;;;;;5021336;28;20065;-80
2023/08/19 08:19:57;;;;;;;8.25;7.57;;;25.80;99.90;;;;;;5013931;28;20061;-81
2023/08/19 08:22:23;;;;;;;7.97;7.28;;;25.90;99.90;;;;;;5013495;28;20045;-80
2023/08/19 08:24:49;;;;;;;8.25;7.55;;;25.90;99.90;;;;;;5009118;28;20057;-82
2023/08/19 08:27:15;;;;;;;12.02;8.30;;;25.90;99.90;;;;;;4995392;28;20034;-80
2023/08/19 08:29:41;;;;;;;9.70;8.70;;;26.00;99.90;;;;;;5018149;28;20491;-80
2023/08/19 08:32:08;;;;;;;9.35;8.07;;;25.90;99.90;;;;;;5018672;28;20050;-79
2023/08/19 08:34:34;;;;;;;10.35;7.82;;;26.00;99.90;;;;;;5019400;28;20045;-78
2023/08/19 08:36:59;;;;;;;7.63;7.03;;;26.10;99.90;;;;;;5025152;28;20068;-79
2023/08/19 08:39:25;;;;;;;8.82;7.90;;;26.20;99.90;;;;;;5024437;28;20026;-81
2023/08/19 08:41:52;;;;;;;7.93;7.22;;;26.20;99.90;;;;;;5024072;28;20033;-79
2023/08/19 08:44:18;;;;;;;8.27;7.53;;;26.10;99.90;;;;;;5030373;28;20038;-81
2023/08/19 08:46:46;;;;;;;9.43;8.18;;;26.10;99.90;;;;;;5021546;28;20494;-80
2023/08/19 08:49:13;;;;;;;7.10;6.60;;;26.20;99.90;;;;;;5016797;28;20557;-80
2023/08/19 08:51:40;;;;;;;9.07;8.13;;;26.20;99.90;;;;;;5023282;28;20029;-80
2023/08/19 08:54:07;;;;;;;8.50;7.63;;;26.30;99.90;;;;;;5002416;28;20134;-79
2023/08/19 08:56:33;;;;;;;8.32;7.63;;;26.30;99.90;;;;;;5013809;28;20516;-79
2023/08/19 08:58:58;;;;;;;8.13;7.32;;;26.40;99.90;;;;;;5019219;28;20046;-80
2023/08/19 09:01:27;;;;;;;8.95;7.22;;;26.50;99.90;;;;;;5027574;28;20133;-81
2023/08/19 09:04:01;;;;;;;9.45;7.60;;;26.60;99.90;;;;;;5025577;28;20030;-80
2023/08/19 09:06:27;;;;;;;7.82;7.10;;;26.60;99.90;;;;;;5020328;28;20034;-81
2023/08/19 09:09:01;;;;;;;7.45;6.85;;;26.70;99.90;;;;;;5025630;28;20030;-80
2023/08/19 09:11:28;;;;;;;8.15;6.57;;;26.70;99.90;;;;;;5024708;28;20047;-80
2023/08/19 09:14:21;;;;;;;8.48;7.65;;;26.70;99.90;;;;;;5030537;28;20103;-80
2023/08/19 09:16:47;;;;;;;8.45;7.30;;;26.70;99.90;;;;;;5023171;28;20541;-80
2023/08/19 09:19:13;;;;;;;7.30;6.60;;;26.70;99.90;;;;;;5032165;28;20044;-80
2023/08/19 09:21:39;;;;;;;6.88;6.28;;;26.60;99.90;;;;;;5028677;28;20083;-80
2023/08/19 09:24:05;;;;;;;6.97;6.28;;;26.70;99.90;;;;;;5013523;28;20034;-79
2023/08/19 09:26:31;;;;;;;6.38;5.80;;;26.70;99.90;;;;;;5021148;28;20041;-80
2023/08/19 09:28:57;;;;;;;11.45;5.90;;;26.70;99.90;;;;;;5045414;28;20039;-79
2023/08/19 09:31:24;;;;;;;7.53;6.47;;;26.80;99.90;;;;;;5019776;28;20079;-80
2023/08/19 09:33:52;;;;;;;6.10;5.60;;;26.80;99.90;;;;;;5019823;28;20061;-79
2023/08/19 09:36:24;;;;;;;5.93;5.43;;;26.80;99.90;;;;;;5014249;28;20486;-80
2023/08/19 09:38:54;;;;;;;7.07;5.82;;;26.80;99.90;;;;;;5026699;28;20453;-80
2023/08/19 09:41:24;;;;;;;5.10;4.60;;;26.90;99.90;;;;;;5017617;28;20529;-79
2023/08/19 09:43:50;;;;;;;8.13;4.55;;;26.90;99.90;;;;;;5021276;28;20040;-80
2023/08/19 09:46:15;;;;;;;4.60;4.20;;;27.00;99.90;;;;;;5019562;28;20113;-79
2023/08/19 09:48:53;;;;;;;4.25;3.85;;;27.00;99.90;;;;;;5013197;28;20041;-78
2023/08/19 09:51:24;;;;;;;6.10;4.47;;;27.00;99.90;;;;;;5020090;28;20039;-79
2023/08/19 09:53:49;;;;;;;5.10;4.05;;;27.10;99.90;;;;;;5026774;28;20383;-79
2023/08/19 09:56:24;;;;;;;4.60;4.15;;;27.10;99.90;;;;;;5014821;28;20084;-80
2023/08/19 09:58:53;;;;;;;7.40;4.40;;;27.10;99.90;;;;;;5016019;28;20194;-78
2023/08/19 10:01:22;;;;;;;4.15;3.65;;;27.20;99.90;;;;;;5024408;28;20026;-80
2023/08/19 10:03:49;;;;;;;4.45;3.85;;;27.20;99.90;;;;;;5028089;28;20053;-79
2023/08/19 10:06:24;;;;;;;5.32;4.07;;;27.20;99.90;;;;;;5009664;28;20495;-79
2023/08/19 10:08:56;;;;;;;5.28;4.30;;;27.30;99.90;;;;;;5025705;28;20040;-79
2023/08/19 10:11:24;;;;;;;7.57;3.60;;;27.40;99.90;;;;;;5018017;28;20581;-79
2023/08/19 10:13:52;;;;;;;3.95;3.50;;;27.30;98.90;;;;;;5022768;28;20037;-79
2023/08/19 10:16:21;;;;;;;5.45;3.78;;;27.20;98.80;;;;;;5020082;28;20037;-81
2023/08/19 10:18:48;;;;;;;4.00;3.70;;;27.20;98.70;;;;;;5015283;28;20076;-78
2023/08/19 10:21:15;;;;;;;4.97;3.92;;;27.30;99.80;;;;;;5000923;28;20065;-81
2023/08/19 10:23:44;;;;;;;6.60;3.60;;;27.20;98.60;;;;;;5010948;28;20064;-80
2023/08/19 10:26:10;;;;;;;6.38;4.05;;;27.30;99.40;;;;;;5011524;28;20132;-80
2023/08/19 10:28:36;;;;;;;4.60;4.20;;;27.40;99.90;;;;;;5002098;28;20062;-82
2023/08/19 10:31:10;;;;;;;3.72;3.42;;;27.50;98.20;;;;;;5010780;28;20034;-77
2023/08/19 10:33:40;;;;;;;3.97;3.67;;;27.50;98.20;;;;;;5005373;28;20033;-78
2023/08/19 10:36:07;;;;;;;4.45;4.05;;;27.60;97.00;;;;;;5013117;28;20038;-76
2023/08/19 10:39:07;;;;;;;3.75;3.45;;;27.70;97.00;;;;;;5011703;28;20030;-78
2023/08/19 10:41:36;;;;;;;4.18;3.53;;;27.70;97.20;;;;;;5012740;28;20033;-79
2023/08/19 10:44:10;;;;;;;4.53;3.75;;;27.70;95.50;;;;;;5023371;28;20030;-79
2023/08/19 10:46:47;;;;;;;4.43;3.97;;;27.70;94.10;;;;;;5030024;28;20433;-80
2023/08/19 10:49:15;;;;;;;4.20;3.90;;;27.70;96.40;;;;;;5011594;28;20049;-80
2023/08/19 10:51:54;;;;;;;4.53;4.13;;;27.80;95.00;;;;;;5012004;28;20933;-77
2023/08/19 10:54:38;;;;;;;4.13;3.70;;;27.80;96.40;;;;;;5010954;28;20042;-79
2023/08/19 10:57:16;;;;;;;4.90;3.72;;;27.90;96.70;;;;;;5015260;28;20507;-78
2023/08/19 10:59:47;;;;;;;6.13;4.30;;;28.00;95.50;;;;;;5016164;28;20498;-78
2023/08/19 11:02:14;;;;;;;5.40;4.00;;;28.10;97.20;;;;;;5015091;28;20025;-79
2023/08/19 11:04:47;;;;;;;4.55;3.50;;;28.10;95.90;;;;;;5021647;28;20042;-81
2023/08/19 11:07:13;;;;;;;5.53;3.50;;;28.10;91.80;;;;;;5020953;28;20037;-81
2023/08/19 11:09:43;;;;;;;3.58;3.28;;;28.10;93.10;;;;;;5014337;28;20120;-79
2023/08/19 11:12:11;;;;;;;4.30;3.90;;;28.10;94.40;;;;;;5021821;28;20038;-79
2023/08/19 11:14:38;;;;;;;4.53;3.60;;;28.20;94.10;;;;;;5023022;28;20041;-79
2023/08/19 11:17:04;;;;;;;5.72;3.55;;;28.20;93.60;;;;;;5012247;28;20061;-79
2023/08/19 11:19:31;;;;;;;3.90;3.60;;;28.30;92.50;;;;;;5016681;28;20048;-81
2023/08/19 11:21:57;;;;;;;5.47;3.70;;;28.30;93.10;;;;;;5012519;28;20026;-80
2023/08/19 11:24:30;;;;;;;4.35;3.60;;;28.40;94.10;;;;;;5023049;28;20144;-78
2023/08/19 11:26:56;;;;;;;5.72;3.88;;;28.40;91.80;;;;;;5013656;28;20050;-80
2023/08/19 11:29:22;;;;;;;3.83;3.53;;;28.40;92.50;;;;;;5022909;28;20061;-79
2023/08/19 11:31:48;;;;;;;3.00;2.80;;;28.50;92.70;;;;;;5018132;28;20042;-78
2023/08/19 11:34:14;;;;;;;3.22;3.00;;;28.50;93.40;;;;;;5021967;28;20038;-79
2023/08/19 11:37:02;;;;;;;3.50;3.20;;;28.60;91.80;;;;;;5019845;28;20044;-79
2023/08/19 11:39:35;;;;;;;4.18;3.22;;;28.70;86.10;;;;;;5016808;28;20042;-78
2023/08/19 11:42:02;;;;;;;3.35;3.15;;;28.70;88.50;;;;;;5018280;28;20080;-79
2023/08/19 11:44:28;;;;;;;5.40;3.70;;;28.70;91.50;;;;;;5023153;28;20040;-78
2023/08/19 11:46:56;;;;;;;5.10;3.30;;;28.70;90.00;;;;;;5020419;28;20041;-79
2023/08/19 11:49:24;;;;;;;3.95;3.20;;;28.80;89.20;;;;;;5028313;28;20042;-80
2023/08/19 11:51:50;;;;;;;3.88;3.53;;;28.90;86.50;;;;;;5024591;28;20087;-79
2023/08/19 11:54:16;;;;;;;3.65;3.35;;;28.90;88.00;;;;;;5028895;28;20033;-80
2023/08/19 11:56:56;;;;;;;5.38;3.17;;;29.00;91.60;;;;;;5022955;28;20030;-80
2023/08/19 11:59:33;;;;;;;3.15;2.85;;;29.00;88.70;;;;;;5030268;28;20044;-79
2023/08/19 12:02:04;;;;;;;3.50;3.20;;;29.00;83.30;;;;;;5023942;28;20041;-79
2023/08/19 12:04:34;;;;;;;4.72;3.40;;;29.00;78.30;;;;;;5024741;28;20030;-79
2023/08/19 12:07:12;;;;;;;3.10;2.80;;;29.00;75.90;;;;;;5014821;28;20041;-78
2023/08/19 12:09:39;;;;;;;4.05;3.08;;;29.00;79.60;;;;;;5019629;28;20033;-79
2023/08/19 12:12:10;;;;;;;5.75;3.17;;;28.90;79.50;;;;;;5034835;28;20400;-79
2023/08/19 12:14:37;;;;;;;4.50;2.97;;;29.00;82.90;;;;;;5026134;28;20033;-79
2023/08/19 12:17:06;;;;;;;3.00;2.80;;;29.10;82.90;;;;;;5032069;28;20048;-81
2023/08/19 12:19:32;;;;;;;3.65;2.67;;;29.10;77.20;;;;;;5012950;28;20060;-80
2023/08/19 12:21:58;;;;;;;3.55;3.20;;;29.20;76.10;;;;;;5022726;28;20041;-81
2023/08/19 12:24:24;;;;;;;2.70;2.50;;;29.20;80.90;;;;;;5003650;28;20523;-80
2023/08/19 12:26:50;;;;;;;4.97;3.00;;;29.30;77.10;;;;;;5013098;28;20061;-79
2023/08/19 12:29:16;;;;;;;3.28;2.72;;;29.30;74.00;;;;;;5017578;28;20036;-78
2023/08/19 12:31:41;;;;;;;4.85;3.40;;;29.30;78.30;;;;;;5030556;28;20049;-79
2023/08/19 12:34:07;;;;;;;3.50;3.20;;;29.40;75.70;;;;;;5026500;28;20030;-79
2023/08/19 12:36:33;;;;;;;4.18;3.13;;;29.50;79.80;;;;;;5025765;28;20707;-79
2023/08/19 12:38:59;;;;;;;3.35;2.88;;;29.50;74.80;;;;;;5024750;28;20033;-78